sensor_id;sensor_type;location;lat;lon;timestamp;P1;durP1;ratioP1;P2;durP2;ratioP2
5277;SDS011;2662;51.194;6.614;2023-07-16T00:00:14;4.97;;;2.10;;
5277;SDS011;2662;51.194;6.614;2023-07-16T00:02:43;6.13;;;2.17;;
5277;SDS011;2662;51.194;6.614;2023-07-16T00:05:10;8.20;;;1.93;;
5277;SDS011;2662;51.194;6.614;2023-07-16T00:07:37;8.73;;;2.67;;
5277;SDS011;2662;51.194;6.614;2023-07-16T00:10:04;6.67;;;3.23;;
5277;SDS011;2662;51.194;6.614;2023-07-16T00:12:31;11.10;;;4.90;;
5277;SDS011;2662;51.194;6.614;2023-07-16T00:14:57;14.97;;;5.90;;
5277;SDS011;2662;51.194;6.614;2023-07-16T00:17:25;16.87;;;6.60;;
5277;SDS011;2662;51.194;6.614;2023-07-16T00:19:52;12.07;;;7.90;;
5277;SDS011;2662;51.194;6.614;2023-07-16T00:22:19;19.20;;;9.30;;
5277;SDS011;2662;51.194;6.614;2023-07-16T00:24:45;23.83;;;9.50;;
5277;SDS011;2662;51.194;6.614;2023-07-16T00:27:12;15.07;;;9.13;;
5277;SDS011;2662;51.194;6.614;2023-07-16T00:29:39;11.40;;;7.60;;
5277;SDS011;2662;51.194;6.614;2023-07-16T00:32:06;21.77;;;6.97;;
5277;SDS011;2662;51.194;6.614;2023-07-16T00:34:34;11.73;;;6.23;;
5277;SDS011;2662;51.194;6.614;2023-07-16T00:37:01;7.70;;;5.10;;
5277;SDS011;2662;51.194;6.614;2023-07-16T00:39:28;9.77;;;4.40;;
5277;SDS011;2662;51.194;6.614;2023-07-16T00:41:55;13.13;;;3.80;;
5277;SDS011;2662;51.194;6.614;2023-07-16T00:44:22;8.77;;;3.03;;
5277;SDS011;2662;51.194;6.614;2023-07-16T00:46:49;14.93;;;2.60;;
5277;SDS011;2662;51.194;6.614;2023-07-16T00:49:16;4.77;;;2.30;;
5277;SDS011;2662;51.194;6.614;2023-07-16T00:51:44;4.73;;;1.93;;
5277;SDS011;2662;51.194;6.614;2023-07-16T00:54:11;4.00;;;2.37;;
5277;SDS011;2662;51.194;6.614;2023-07-16T00:56:38;4.93;;;2.10;;
5277;SDS011;2662;51.194;6.614;2023-07-16T00:59:05;3.37;;;2.37;;
5277;SDS011;2662;51.194;6.614;2023-07-16T01:01:32;4.67;;;2.47;;
5277;SDS011;2662;51.194;6.614;2023-07-16T01:03:58;3.70;;;2.07;;
5277;SDS011;2662;51.194;6.614;2023-07-16T01:06:26;8.30;;;2.27;;
5277;SDS011;2662;51.194;6.614;2023-07-16T01:09:01;4.50;;;1.83;;
5277;SDS011;2662;51.194;6.614;2023-07-16T01:11:29;9.37;;;2.73;;
5277;SDS011;2662;51.194;6.614;2023-07-16T01:14:00;7.00;;;2.40;;
5277;SDS011;2662;51.194;6.614;2023-07-16T01:16:28;8.17;;;2.13;;
5277;SDS011;2662;51.194;6.614;2023-07-16T01:18:54;5.20;;;2.30;;
5277;SDS011;2662;51.194;6.614;2023-07-16T01:21:22;4.30;;;2.10;;
5277;SDS011;2662;51.194;6.614;2023-07-16T01:24:03;4.47;;;2.10;;
5277;SDS011;2662;51.194;6.614;2023-07-16T01:26:47;11.43;;;2.10;;
5277;SDS011;2662;51.194;6.614;2023-07-16T01:29:28;4.93;;;2.70;;
5277;SDS011;2662;51.194;6.614;2023-07-16T01:31:58;9.30;;;2.80;;
5277;SDS011;2662;51.194;6.614;2023-07-16T01:34:26;9.40;;;2.20;;
5277;SDS011;2662;51.194;6.614;2023-07-16T01:36:55;11.83;;;2.23;;
5277;SDS011;2662;51.194;6.614;2023-07-16T01:39:22;10.33;;;2.67;;
5277;SDS011;2662;51.194;6.614;2023-07-16T01:41:49;7.33;;;2.30;;
5277;SDS011;2662;51.194;6.614;2023-07-16T01:44:15;11.77;;;2.97;;
5277;SDS011;2662;51.194;6.614;2023-07-16T01:46:43;3.57;;;2.10;;
5277;SDS011;2662;51.194;6.614;2023-07-16T01:49:11;7.87;;;2.40;;
5277;SDS011;2662;51.194;6.614;2023-07-16T01:51:38;4.23;;;1.90;;
5277;SDS011;2662;51.194;6.614;2023-07-16T01:54:05;2.00;;;1.83;;
5277;SDS011;2662;51.194;6.614;2023-07-16T01:56:32;11.03;;;2.40;;
5277;SDS011;2662;51.194;6.614;2023-07-16T01:58:59;7.30;;;1.80;;
5277;SDS011;2662;51.194;6.614;2023-07-16T02:01:26;9.73;;;2.03;;
5277;SDS011;2662;51.194;6.614;2023-07-16T02:03:54;5.53;;;2.17;;
5277;SDS011;2662;51.194;6.614;2023-07-16T02:06:20;5.77;;;2.13;;
5277;SDS011;2662;51.194;6.614;2023-07-16T02:08:47;3.43;;;1.90;;
5277;SDS011;2662;51.194;6.614;2023-07-16T02:11:14;3.43;;;1.63;;
5277;SDS011;2662;51.194;6.614;2023-07-16T02:13:40;12.63;;;2.43;;
5277;SDS011;2662;51.194;6.614;2023-07-16T02:16:07;6.60;;;3.17;;
5277;SDS011;2662;51.194;6.614;2023-07-16T02:18:34;14.10;;;2.30;;
5277;SDS011;2662;51.194;6.614;2023-07-16T02:21:02;7.03;;;1.90;;
5277;SDS011;2662;51.194;6.614;2023-07-16T02:23:28;10.27;;;2.00;;
5277;SDS011;2662;51.194;6.614;2023-07-16T02:25:55;9.13;;;1.97;;
5277;SDS011;2662;51.194;6.614;2023-07-16T02:28:22;7.83;;;1.70;;
5277;SDS011;2662;51.194;6.614;2023-07-16T02:30:49;6.00;;;1.80;;
5277;SDS011;2662;51.194;6.614;2023-07-16T02:33:15;7.93;;;1.97;;
5277;SDS011;2662;51.194;6.614;2023-07-16T02:35:45;3.10;;;1.50;;
5277;SDS011;2662;51.194;6.614;2023-07-16T02:38:13;4.43;;;1.93;;
5277;SDS011;2662;51.194;6.614;2023-07-16T02:40:42;3.07;;;1.97;;
5277;SDS011;2662;51.194;6.614;2023-07-16T02:43:09;7.00;;;3.30;;
5277;SDS011;2662;51.194;6.614;2023-07-16T02:45:36;4.73;;;1.80;;
5277;SDS011;2662;51.194;6.614;2023-07-16T02:48:04;8.27;;;2.07;;
5277;SDS011;2662;51.194;6.614;2023-07-16T02:50:33;9.40;;;2.10;;
5277;SDS011;2662;51.194;6.614;2023-07-16T02:53:00;8.70;;;1.80;;
5277;SDS011;2662;51.194;6.614;2023-07-16T02:55:28;5.90;;;1.60;;
5277;SDS011;2662;51.194;6.614;2023-07-16T02:57:55;6.50;;;1.80;;
5277;SDS011;2662;51.194;6.614;2023-07-16T03:00:22;5.93;;;1.77;;
5277;SDS011;2662;51.194;6.614;2023-07-16T03:02:48;10.40;;;1.80;;
5277;SDS011;2662;51.194;6.614;2023-07-16T03:05:15;12.70;;;1.80;;
5277;SDS011;2662;51.194;6.614;2023-07-16T03:07:42;5.23;;;1.60;;
5277;SDS011;2662;51.194;6.614;2023-07-16T03:10:09;2.40;;;1.50;;
5277;SDS011;2662;51.194;6.614;2023-07-16T03:12:37;10.03;;;2.23;;
5277;SDS011;2662;51.194;6.614;2023-07-16T03:15:04;4.03;;;1.63;;
5277;SDS011;2662;51.194;6.614;2023-07-16T03:17:32;5.03;;;2.20;;
5277;SDS011;2662;51.194;6.614;2023-07-16T03:19:58;5.70;;;1.67;;
5277;SDS011;2662;51.194;6.614;2023-07-16T03:22:25;3.10;;;1.70;;
5277;SDS011;2662;51.194;6.614;2023-07-16T03:24:52;4.10;;;1.67;;
5277;SDS011;2662;51.194;6.614;2023-07-16T03:27:19;3.43;;;1.70;;
5277;SDS011;2662;51.194;6.614;2023-07-16T03:29:47;5.73;;;2.70;;
5277;SDS011;2662;51.194;6.614;2023-07-16T03:32:13;12.80;;;2.40;;
5277;SDS011;2662;51.194;6.614;2023-07-16T03:34:40;7.13;;;2.17;;
5277;SDS011;2662;51.194;6.614;2023-07-16T03:37:07;6.90;;;1.70;;
5277;SDS011;2662;51.194;6.614;2023-07-16T03:39:33;3.97;;;2.20;;
5277;SDS011;2662;51.194;6.614;2023-07-16T03:42:00;8.70;;;1.83;;
5277;SDS011;2662;51.194;6.614;2023-07-16T03:44:27;7.03;;;1.70;;
5277;SDS011;2662;51.194;6.614;2023-07-16T03:46:56;4.23;;;1.60;;
5277;SDS011;2662;51.194;6.614;2023-07-16T03:49:23;9.57;;;2.27;;
5277;SDS011;2662;51.194;6.614;2023-07-16T03:51:50;6.60;;;2.20;;
5277;SDS011;2662;51.194;6.614;2023-07-16T03:54:16;10.50;;;1.80;;
5277;SDS011;2662;51.194;6.614;2023-07-16T03:56:43;9.83;;;2.13;;
5277;SDS011;2662;51.194;6.614;2023-07-16T03:59:10;4.20;;;1.50;;
5277;SDS011;2662;51.194;6.614;2023-07-16T04:01:36;8.53;;;1.80;;
5277;SDS011;2662;51.194;6.614;2023-07-16T04:04:04;4.40;;;2.10;;
5277;SDS011;2662;51.194;6.614;2023-07-16T04:06:31;11.20;;;2.50;;
5277;SDS011;2662;51.194;6.614;2023-07-16T04:08:58;2.10;;;1.90;;
5277;SDS011;2662;51.194;6.614;2023-07-16T04:11:24;10.50;;;2.37;;
5277;SDS011;2662;51.194;6.614;2023-07-16T04:13:51;6.30;;;1.87;;
5277;SDS011;2662;51.194;6.614;2023-07-16T04:16:18;7.17;;;2.23;;
5277;SDS011;2662;51.194;6.614;2023-07-16T04:18:44;7.60;;;1.90;;
5277;SDS011;2662;51.194;6.614;2023-07-16T04:21:12;7.77;;;2.23;;
5277;SDS011;2662;51.194;6.614;2023-07-16T04:23:39;3.93;;;2.07;;
5277;SDS011;2662;51.194;6.614;2023-07-16T04:26:06;14.63;;;2.73;;
5277;SDS011;2662;51.194;6.614;2023-07-16T04:28:32;8.67;;;1.60;;
5277;SDS011;2662;51.194;6.614;2023-07-16T04:30:59;12.93;;;2.70;;
5277;SDS011;2662;51.194;6.614;2023-07-16T04:33:26;6.70;;;2.60;;
5277;SDS011;2662;51.194;6.614;2023-07-16T04:35:53;6.93;;;2.20;;
5277;SDS011;2662;51.194;6.614;2023-07-16T04:38:21;8.20;;;2.17;;
5277;SDS011;2662;51.194;6.614;2023-07-16T04:40:47;6.10;;;2.50;;
5277;SDS011;2662;51.194;6.614;2023-07-16T04:43:14;5.07;;;2.43;;
5277;SDS011;2662;51.194;6.614;2023-07-16T04:45:41;6.57;;;2.33;;
5277;SDS011;2662;51.194;6.614;2023-07-16T04:48:11;9.73;;;2.30;;
5277;SDS011;2662;51.194;6.614;2023-07-16T04:50:38;8.80;;;2.30;;
5277;SDS011;2662;51.194;6.614;2023-07-16T04:53:05;2.83;;;2.10;;
5277;SDS011;2662;51.194;6.614;2023-07-16T04:55:36;4.83;;;2.33;;
5277;SDS011;2662;51.194;6.614;2023-07-16T04:58:02;4.60;;;2.40;;
5277;SDS011;2662;51.194;6.614;2023-07-16T05:00:30;12.70;;;2.40;;
5277;SDS011;2662;51.194;6.614;2023-07-16T05:02:57;9.70;;;2.73;;
5277;SDS011;2662;51.194;6.614;2023-07-16T05:05:24;9.10;;;2.43;;
5277;SDS011;2662;51.194;6.614;2023-07-16T05:07:51;10.80;;;2.80;;
5277;SDS011;2662;51.194;6.614;2023-07-16T05:10:18;5.23;;;2.07;;
5277;SDS011;2662;51.194;6.614;2023-07-16T05:12:46;4.40;;;2.20;;
5277;SDS011;2662;51.194;6.614;2023-07-16T05:15:12;7.73;;;2.67;;
5277;SDS011;2662;51.194;6.614;2023-07-16T05:17:39;6.77;;;2.77;;
5277;SDS011;2662;51.194;6.614;2023-07-16T05:20:06;6.60;;;2.10;;
5277;SDS011;2662;51.194;6.614;2023-07-16T05:22:35;8.67;;;3.40;;
5277;SDS011;2662;51.194;6.614;2023-07-16T05:25:01;6.47;;;2.70;;
5277;SDS011;2662;51.194;6.614;2023-07-16T05:27:28;8.80;;;2.50;;
5277;SDS011;2662;51.194;6.614;2023-07-16T05:29:57;4.37;;;2.80;;
5277;SDS011;2662;51.194;6.614;2023-07-16T05:32:23;10.60;;;2.80;;
5277;SDS011;2662;51.194;6.614;2023-07-16T05:34:50;8.40;;;3.07;;
5277;SDS011;2662;51.194;6.614;2023-07-16T05:37:17;8.93;;;2.90;;
5277;SDS011;2662;51.194;6.614;2023-07-16T05:39:43;10.53;;;2.80;;
5277;SDS011;2662;51.194;6.614;2023-07-16T05:42:10;8.93;;;2.87;;
5277;SDS011;2662;51.194;6.614;2023-07-16T05:44:37;11.90;;;2.90;;
5277;SDS011;2662;51.194;6.614;2023-07-16T05:47:05;8.53;;;2.70;;
5277;SDS011;2662;51.194;6.614;2023-07-16T05:49:33;23.97;;;3.37;;
5277;SDS011;2662;51.194;6.614;2023-07-16T05:52:00;12.03;;;3.03;;
5277;SDS011;2662;51.194;6.614;2023-07-16T05:54:26;4.00;;;2.60;;
5277;SDS011;2662;51.194;6.614;2023-07-16T05:56:53;7.90;;;3.03;;
5277;SDS011;2662;51.194;6.614;2023-07-16T05:59:20;7.40;;;2.67;;
5277;SDS011;2662;51.194;6.614;2023-07-16T06:01:46;5.53;;;2.80;;
5277;SDS011;2662;51.194;6.614;2023-07-16T06:04:14;6.87;;;3.20;;
5277;SDS011;2662;51.194;6.614;2023-07-16T06:06:41;8.70;;;3.10;;
5277;SDS011;2662;51.194;6.614;2023-07-16T06:09:08;5.07;;;2.90;;
5277;SDS011;2662;51.194;6.614;2023-07-16T06:11:35;4.80;;;3.23;;
5277;SDS011;2662;51.194;6.614;2023-07-16T06:14:01;4.13;;;2.97;;
5277;SDS011;2662;51.194;6.614;2023-07-16T06:16:28;8.23;;;2.97;;
5277;SDS011;2662;51.194;6.614;2023-07-16T06:18:55;5.83;;;2.60;;
5277;SDS011;2662;51.194;6.614;2023-07-16T06:21:23;7.43;;;3.27;;
5277;SDS011;2662;51.194;6.614;2023-07-16T06:23:50;7.97;;;3.60;;
5277;SDS011;2662;51.194;6.614;2023-07-16T06:26:17;9.60;;;3.33;;
5277;SDS011;2662;51.194;6.614;2023-07-16T06:28:43;5.97;;;3.53;;
5277;SDS011;2662;51.194;6.614;2023-07-16T06:31:14;14.00;;;3.10;;
5277;SDS011;2662;51.194;6.614;2023-07-16T06:33:40;12.50;;;3.50;;
5277;SDS011;2662;51.194;6.614;2023-07-16T06:36:07;7.70;;;3.13;;
5277;SDS011;2662;51.194;6.614;2023-07-16T06:38:36;5.63;;;3.70;;
5277;SDS011;2662;51.194;6.614;2023-07-16T06:41:02;9.63;;;3.70;;
5277;SDS011;2662;51.194;6.614;2023-07-16T06:43:29;16.57;;;3.07;;
5277;SDS011;2662;51.194;6.614;2023-07-16T06:45:56;13.23;;;4.30;;
5277;SDS011;2662;51.194;6.614;2023-07-16T06:48:22;7.13;;;3.30;;
5277;SDS011;2662;51.194;6.614;2023-07-16T06:50:49;10.07;;;4.13;;
5277;SDS011;2662;51.194;6.614;2023-07-16T06:53:16;5.97;;;3.07;;
5277;SDS011;2662;51.194;6.614;2023-07-16T06:55:44;6.00;;;3.47;;
5277;SDS011;2662;51.194;6.614;2023-07-16T06:58:14;11.53;;;3.77;;
5277;SDS011;2662;51.194;6.614;2023-07-16T07:00:41;6.90;;;4.00;;
5277;SDS011;2662;51.194;6.614;2023-07-16T07:03:07;6.63;;;3.67;;
5277;SDS011;2662;51.194;6.614;2023-07-16T07:05:34;10.70;;;3.50;;
5277;SDS011;2662;51.194;6.614;2023-07-16T07:08:02;16.20;;;3.73;;
5277;SDS011;2662;51.194;6.614;2023-07-16T07:10:29;13.73;;;3.70;;
5277;SDS011;2662;51.194;6.614;2023-07-16T07:12:57;5.40;;;3.27;;
5277;SDS011;2662;51.194;6.614;2023-07-16T07:15:23;7.20;;;3.57;;
5277;SDS011;2662;51.194;6.614;2023-07-16T07:17:50;6.83;;;3.33;;
5277;SDS011;2662;51.194;6.614;2023-07-16T07:20:17;10.20;;;3.80;;
5277;SDS011;2662;51.194;6.614;2023-07-16T07:22:44;10.83;;;4.40;;
5277;SDS011;2662;51.194;6.614;2023-07-16T07:25:10;5.50;;;3.60;;
5277;SDS011;2662;51.194;6.614;2023-07-16T07:27:37;12.87;;;3.53;;
5277;SDS011;2662;51.194;6.614;2023-07-16T07:30:06;10.97;;;4.10;;
5277;SDS011;2662;51.194;6.614;2023-07-16T07:32:36;7.10;;;3.60;;
5277;SDS011;2662;51.194;6.614;2023-07-16T07:35:03;6.70;;;3.50;;
5277;SDS011;2662;51.194;6.614;2023-07-16T07:37:31;7.67;;;3.83;;
5277;SDS011;2662;51.194;6.614;2023-07-16T07:39:58;11.40;;;4.37;;
5277;SDS011;2662;51.194;6.614;2023-07-16T07:42:25;10.10;;;3.77;;
5277;SDS011;2662;51.194;6.614;2023-07-16T07:44:53;8.07;;;3.70;;
5277;SDS011;2662;51.194;6.614;2023-07-16T07:47:21;11.80;;;3.97;;
5277;SDS011;2662;51.194;6.614;2023-07-16T07:49:48;9.40;;;3.60;;
5277;SDS011;2662;51.194;6.614;2023-07-16T07:52:14;7.50;;;3.30;;
5277;SDS011;2662;51.194;6.614;2023-07-16T07:54:41;6.90;;;3.70;;
5277;SDS011;2662;51.194;6.614;2023-07-16T07:57:08;4.50;;;3.50;;
5277;SDS011;2662;51.194;6.614;2023-07-16T07:59:35;13.20;;;3.97;;
5277;SDS011;2662;51.194;6.614;2023-07-16T08:02:02;10.83;;;3.73;;
5277;SDS011;2662;51.194;6.614;2023-07-16T08:04:30;13.33;;;3.70;;
5277;SDS011;2662;51.194;6.614;2023-07-16T08:06:57;7.63;;;3.43;;
5277;SDS011;2662;51.194;6.614;2023-07-16T08:09:25;7.33;;;3.50;;
5277;SDS011;2662;51.194;6.614;2023-07-16T08:11:52;11.73;;;4.47;;
5277;SDS011;2662;51.194;6.614;2023-07-16T08:14:19;14.90;;;3.60;;
5277;SDS011;2662;51.194;6.614;2023-07-16T08:16:46;9.07;;;3.37;;
5277;SDS011;2662;51.194;6.614;2023-07-16T08:19:12;10.47;;;3.87;;
5277;SDS011;2662;51.194;6.614;2023-07-16T08:21:40;7.70;;;3.50;;
5277;SDS011;2662;51.194;6.614;2023-07-16T08:24:07;9.30;;;3.93;;
5277;SDS011;2662;51.194;6.614;2023-07-16T08:26:34;15.27;;;3.90;;
5277;SDS011;2662;51.194;6.614;2023-07-16T08:29:00;13.20;;;4.00;;
5277;SDS011;2662;51.194;6.614;2023-07-16T08:31:27;5.03;;;2.93;;
5277;SDS011;2662;51.194;6.614;2023-07-16T08:33:54;6.77;;;3.10;;
5277;SDS011;2662;51.194;6.614;2023-07-16T08:36:21;6.67;;;3.70;;
5277;SDS011;2662;51.194;6.614;2023-07-16T08:38:49;6.00;;;3.73;;
5277;SDS011;2662;51.194;6.614;2023-07-16T08:41:16;12.60;;;3.60;;
5277;SDS011;2662;51.194;6.614;2023-07-16T08:43:44;6.97;;;3.60;;
5277;SDS011;2662;51.194;6.614;2023-07-16T08:46:12;7.80;;;3.67;;
5277;SDS011;2662;51.194;6.614;2023-07-16T08:48:38;10.70;;;4.00;;
5277;SDS011;2662;51.194;6.614;2023-07-16T08:51:06;6.83;;;4.10;;
5277;SDS011;2662;51.194;6.614;2023-07-16T08:53:35;12.77;;;4.13;;
5277;SDS011;2662;51.194;6.614;2023-07-16T08:56:03;12.53;;;3.97;;
5277;SDS011;2662;51.194;6.614;2023-07-16T08:58:30;7.60;;;3.43;;
5277;SDS011;2662;51.194;6.614;2023-07-16T09:00:58;7.33;;;3.37;;
5277;SDS011;2662;51.194;6.614;2023-07-16T09:03:26;10.60;;;3.67;;
5277;SDS011;2662;51.194;6.614;2023-07-16T09:05:53;7.13;;;3.50;;
5277;SDS011;2662;51.194;6.614;2023-07-16T09:08:20;7.13;;;3.67;;
5277;SDS011;2662;51.194;6.614;2023-07-16T09:10:52;8.87;;;3.67;;
5277;SDS011;2662;51.194;6.614;2023-07-16T09:13:21;11.63;;;3.40;;
5277;SDS011;2662;51.194;6.614;2023-07-16T09:15:51;4.93;;;3.07;;
5277;SDS011;2662;51.194;6.614;2023-07-16T09:18:19;5.30;;;3.07;;
5277;SDS011;2662;51.194;6.614;2023-07-16T09:20:45;6.70;;;3.50;;
5277;SDS011;2662;51.194;6.614;2023-07-16T09:23:12;7.47;;;3.50;;
5277;SDS011;2662;51.194;6.614;2023-07-16T09:25:39;8.23;;;3.50;;
5277;SDS011;2662;51.194;6.614;2023-07-16T09:28:07;7.20;;;3.10;;
5277;SDS011;2662;51.194;6.614;2023-07-16T09:30:35;11.60;;;3.67;;
5277;SDS011;2662;51.194;6.614;2023-07-16T09:33:12;5.60;;;3.33;;
5277;SDS011;2662;51.194;6.614;2023-07-16T09:35:40;5.93;;;3.20;;
5277;SDS011;2662;51.194;6.614;2023-07-16T09:38:07;7.30;;;3.20;;
5277;SDS011;2662;51.194;6.614;2023-07-16T09:40:35;7.60;;;3.83;;
5277;SDS011;2662;51.194;6.614;2023-07-16T09:43:02;6.20;;;3.20;;
5277;SDS011;2662;51.194;6.614;2023-07-16T09:45:29;10.20;;;3.43;;
5277;SDS011;2662;51.194;6.614;2023-07-16T09:47:58;10.50;;;3.40;;
5277;SDS011;2662;51.194;6.614;2023-07-16T09:50:24;7.30;;;3.30;;
5277;SDS011;2662;51.194;6.614;2023-07-16T09:52:55;5.90;;;3.10;;
5277;SDS011;2662;51.194;6.614;2023-07-16T09:55:22;20.83;;;3.70;;
5277;SDS011;2662;51.194;6.614;2023-07-16T09:57:51;7.60;;;3.77;;
5277;SDS011;2662;51.194;6.614;2023-07-16T10:00:21;8.47;;;3.67;;
5277;SDS011;2662;51.194;6.614;2023-07-16T10:02:49;7.50;;;3.27;;
5277;SDS011;2662;51.194;6.614;2023-07-16T10:05:19;9.60;;;3.50;;
5277;SDS011;2662;51.194;6.614;2023-07-16T10:07:51;15.00;;;3.97;;
5277;SDS011;2662;51.194;6.614;2023-07-16T10:10:20;5.33;;;3.43;;
5277;SDS011;2662;51.194;6.614;2023-07-16T10:12:56;8.40;;;3.50;;
5277;SDS011;2662;51.194;6.614;2023-07-16T10:15:24;6.13;;;3.00;;
5277;SDS011;2662;51.194;6.614;2023-07-16T10:17:53;8.50;;;3.03;;
5277;SDS011;2662;51.194;6.614;2023-07-16T10:20:29;6.60;;;2.90;;
5277;SDS011;2662;51.194;6.614;2023-07-16T10:22:57;8.17;;;3.00;;
5277;SDS011;2662;51.194;6.614;2023-07-16T10:25:25;9.53;;;3.40;;
5277;SDS011;2662;51.194;6.614;2023-07-16T10:27:53;8.43;;;3.00;;
5277;SDS011;2662;51.194;6.614;2023-07-16T10:30:20;5.70;;;3.43;;
5277;SDS011;2662;51.194;6.614;2023-07-16T10:32:47;12.13;;;3.27;;
5277;SDS011;2662;51.194;6.614;2023-07-16T10:35:17;9.00;;;3.60;;
5277;SDS011;2662;51.194;6.614;2023-07-16T10:37:45;10.93;;;3.30;;
5277;SDS011;2662;51.194;6.614;2023-07-16T10:40:12;12.93;;;3.23;;
5277;SDS011;2662;51.194;6.614;2023-07-16T10:42:40;9.23;;;3.10;;
5277;SDS011;2662;51.194;6.614;2023-07-16T10:45:08;9.87;;;3.20;;
5277;SDS011;2662;51.194;6.614;2023-07-16T10:47:36;6.20;;;2.90;;
5277;SDS011;2662;51.194;6.614;2023-07-16T10:50:05;5.80;;;2.83;;
5277;SDS011;2662;51.194;6.614;2023-07-16T10:52:33;29.90;;;4.17;;
5277;SDS011;2662;51.194;6.614;2023-07-16T10:55:01;12.37;;;3.00;;
5277;SDS011;2662;51.194;6.614;2023-07-16T10:57:28;4.93;;;3.23;;
5277;SDS011;2662;51.194;6.614;2023-07-16T10:59:55;4.67;;;2.77;;
5277;SDS011;2662;51.194;6.614;2023-07-16T11:02:23;9.57;;;3.27;;
5277;SDS011;2662;51.194;6.614;2023-07-16T11:04:51;6.10;;;3.50;;
5277;SDS011;2662;51.194;6.614;2023-07-16T11:07:19;12.10;;;2.80;;
5277;SDS011;2662;51.194;6.614;2023-07-16T11:09:47;5.87;;;2.70;;
5277;SDS011;2662;51.194;6.614;2023-07-16T11:12:17;7.27;;;3.10;;
5277;SDS011;2662;51.194;6.614;2023-07-16T11:14:45;5.70;;;2.90;;
5277;SDS011;2662;51.194;6.614;2023-07-16T11:17:13;6.20;;;3.00;;
5277;SDS011;2662;51.194;6.614;2023-07-16T11:19:41;3.97;;;2.83;;
5277;SDS011;2662;51.194;6.614;2023-07-16T11:22:11;5.37;;;3.00;;
5277;SDS011;2662;51.194;6.614;2023-07-16T11:24:38;10.77;;;3.03;;
5277;SDS011;2662;51.194;6.614;2023-07-16T11:27:06;6.80;;;3.40;;
5277;SDS011;2662;51.194;6.614;2023-07-16T11:29:40;9.23;;;4.90;;
5277;SDS011;2662;51.194;6.614;2023-07-16T11:32:10;15.13;;;5.50;;
5277;SDS011;2662;51.194;6.614;2023-07-16T11:34:37;15.10;;;3.47;;
5277;SDS011;2662;51.194;6.614;2023-07-16T11:37:07;5.60;;;2.83;;
5277;SDS011;2662;51.194;6.614;2023-07-16T11:39:35;7.33;;;4.67;;
5277;SDS011;2662;51.194;6.614;2023-07-16T11:42:03;9.97;;;3.90;;
5277;SDS011;2662;51.194;6.614;2023-07-16T11:44:34;10.33;;;2.60;;
5277;SDS011;2662;51.194;6.614;2023-07-16T11:47:03;7.27;;;2.70;;
5277;SDS011;2662;51.194;6.614;2023-07-16T11:49:30;6.50;;;3.10;;
5277;SDS011;2662;51.194;6.614;2023-07-16T11:51:57;4.13;;;2.90;;
5277;SDS011;2662;51.194;6.614;2023-07-16T11:54:24;11.77;;;3.40;;
5277;SDS011;2662;51.194;6.614;2023-07-16T11:56:51;7.70;;;3.17;;
5277;SDS011;2662;51.194;6.614;2023-07-16T11:59:18;4.57;;;2.97;;
5277;SDS011;2662;51.194;6.614;2023-07-16T12:01:45;8.70;;;3.13;;
5277;SDS011;2662;51.194;6.614;2023-07-16T12:04:15;4.13;;;2.80;;
5277;SDS011;2662;51.194;6.614;2023-07-16T12:06:42;5.33;;;2.63;;
5277;SDS011;2662;51.194;6.614;2023-07-16T12:09:09;4.70;;;3.07;;
5277;SDS011;2662;51.194;6.614;2023-07-16T12:11:36;4.73;;;2.40;;
5277;SDS011;2662;51.194;6.614;2023-07-16T12:14:03;12.63;;;3.30;;
5277;SDS011;2662;51.194;6.614;2023-07-16T12:16:30;10.23;;;3.00;;
5277;SDS011;2662;51.194;6.614;2023-07-16T12:18:57;6.47;;;3.13;;
5277;SDS011;2662;51.194;6.614;2023-07-16T12:21:25;5.27;;;2.97;;
5277;SDS011;2662;51.194;6.614;2023-07-16T12:23:52;6.70;;;3.00;;
5277;SDS011;2662;51.194;6.614;2023-07-16T12:26:19;5.17;;;2.87;;
5277;SDS011;2662;51.194;6.614;2023-07-16T12:28:45;9.40;;;3.10;;
5277;SDS011;2662;51.194;6.614;2023-07-16T12:31:13;7.47;;;3.23;;
5277;SDS011;2662;51.194;6.614;2023-07-16T12:33:40;5.97;;;2.80;;
5277;SDS011;2662;51.194;6.614;2023-07-16T12:36:07;4.63;;;2.77;;
5277;SDS011;2662;51.194;6.614;2023-07-16T12:38:35;8.70;;;3.20;;
5277;SDS011;2662;51.194;6.614;2023-07-16T12:41:01;5.73;;;2.67;;
5277;SDS011;2662;51.194;6.614;2023-07-16T12:43:28;5.50;;;3.47;;
5277;SDS011;2662;51.194;6.614;2023-07-16T12:45:57;3.13;;;2.60;;
5277;SDS011;2662;51.194;6.614;2023-07-16T12:48:24;7.20;;;2.47;;
5277;SDS011;2662;51.194;6.614;2023-07-16T12:50:51;5.30;;;3.20;;
5277;SDS011;2662;51.194;6.614;2023-07-16T12:53:18;4.80;;;3.23;;
5277;SDS011;2662;51.194;6.614;2023-07-16T12:55:46;20.73;;;3.37;;
5277;SDS011;2662;51.194;6.614;2023-07-16T12:58:12;5.73;;;2.90;;
5277;SDS011;2662;51.194;6.614;2023-07-16T13:00:39;7.43;;;3.50;;
5277;SDS011;2662;51.194;6.614;2023-07-16T13:03:06;5.20;;;2.60;;
5277;SDS011;2662;51.194;6.614;2023-07-16T13:05:36;6.73;;;3.13;;
5277;SDS011;2662;51.194;6.614;2023-07-16T13:08:03;5.53;;;2.63;;
5277;SDS011;2662;51.194;6.614;2023-07-16T13:10:30;14.50;;;3.10;;
5277;SDS011;2662;51.194;6.614;2023-07-16T13:12:58;5.40;;;2.93;;
5277;SDS011;2662;51.194;6.614;2023-07-16T13:15:25;6.57;;;3.10;;
5277;SDS011;2662;51.194;6.614;2023-07-16T13:17:52;5.07;;;3.20;;
5277;SDS011;2662;51.194;6.614;2023-07-16T13:20:20;5.90;;;2.70;;
5277;SDS011;2662;51.194;6.614;2023-07-16T13:22:48;5.00;;;3.07;;
5277;SDS011;2662;51.194;6.614;2023-07-16T13:25:15;8.20;;;2.97;;
5277;SDS011;2662;51.194;6.614;2023-07-16T13:27:42;6.67;;;3.30;;
5277;SDS011;2662;51.194;6.614;2023-07-16T13:30:11;3.53;;;2.70;;
5277;SDS011;2662;51.194;6.614;2023-07-16T13:32:38;14.00;;;2.80;;
5277;SDS011;2662;51.194;6.614;2023-07-16T13:35:05;4.40;;;3.07;;
5277;SDS011;2662;51.194;6.614;2023-07-16T13:37:32;5.57;;;2.83;;
5277;SDS011;2662;51.194;6.614;2023-07-16T13:39:59;12.10;;;3.20;;
5277;SDS011;2662;51.194;6.614;2023-07-16T13:42:26;4.43;;;2.70;;
5277;SDS011;2662;51.194;6.614;2023-07-16T13:44:53;4.40;;;2.90;;
5277;SDS011;2662;51.194;6.614;2023-07-16T13:47:21;8.70;;;2.90;;
5277;SDS011;2662;51.194;6.614;2023-07-16T13:49:48;5.53;;;2.40;;
5277;SDS011;2662;51.194;6.614;2023-07-16T13:52:14;10.47;;;3.40;;
5277;SDS011;2662;51.194;6.614;2023-07-16T13:54:41;4.67;;;2.80;;
5277;SDS011;2662;51.194;6.614;2023-07-16T13:57:08;7.17;;;2.70;;
5277;SDS011;2662;51.194;6.614;2023-07-16T13:59:35;3.43;;;2.40;;
5277;SDS011;2662;51.194;6.614;2023-07-16T14:02:02;3.87;;;2.50;;
5277;SDS011;2662;51.194;6.614;2023-07-16T14:04:31;3.90;;;2.40;;
5277;SDS011;2662;51.194;6.614;2023-07-16T14:06:58;5.90;;;2.50;;
5277;SDS011;2662;51.194;6.614;2023-07-16T14:09:25;5.40;;;2.77;;
5277;SDS011;2662;51.194;6.614;2023-07-16T14:11:51;4.20;;;2.67;;
5277;SDS011;2662;51.194;6.614;2023-07-16T14:14:18;5.13;;;2.70;;
5277;SDS011;2662;51.194;6.614;2023-07-16T14:16:46;4.20;;;2.63;;
5277;SDS011;2662;51.194;6.614;2023-07-16T14:19:13;3.97;;;2.57;;
5277;SDS011;2662;51.194;6.614;2023-07-16T14:21:41;6.10;;;2.40;;
5277;SDS011;2662;51.194;6.614;2023-07-16T14:24:08;8.33;;;2.53;;
5277;SDS011;2662;51.194;6.614;2023-07-16T14:26:35;6.90;;;2.57;;
5277;SDS011;2662;51.194;6.614;2023-07-16T14:29:02;3.83;;;2.23;;
5277;SDS011;2662;51.194;6.614;2023-07-16T14:31:29;6.10;;;2.30;;
5277;SDS011;2662;51.194;6.614;2023-07-16T14:33:56;5.00;;;2.03;;
5277;SDS011;2662;51.194;6.614;2023-07-16T14:36:22;3.30;;;2.20;;
5277;SDS011;2662;51.194;6.614;2023-07-16T14:38:51;5.60;;;2.80;;
5277;SDS011;2662;51.194;6.614;2023-07-16T14:41:17;3.63;;;2.23;;
5277;SDS011;2662;51.194;6.614;2023-07-16T14:43:44;4.00;;;2.43;;
5277;SDS011;2662;51.194;6.614;2023-07-16T14:46:14;3.13;;;2.13;;
5277;SDS011;2662;51.194;6.614;2023-07-16T14:48:41;3.60;;;2.37;;
5277;SDS011;2662;51.194;6.614;2023-07-16T14:51:09;8.17;;;3.27;;
5277;SDS011;2662;51.194;6.614;2023-07-16T14:53:36;3.80;;;2.67;;
5277;SDS011;2662;51.194;6.614;2023-07-16T14:56:04;2.80;;;2.60;;
5277;SDS011;2662;51.194;6.614;2023-07-16T14:58:31;3.97;;;2.40;;
5277;SDS011;2662;51.194;6.614;2023-07-16T15:00:59;5.27;;;2.80;;
5277;SDS011;2662;51.194;6.614;2023-07-16T15:03:28;3.13;;;2.40;;
5277;SDS011;2662;51.194;6.614;2023-07-16T15:05:55;3.43;;;2.60;;
5277;SDS011;2662;51.194;6.614;2023-07-16T15:08:23;3.40;;;2.70;;
5277;SDS011;2662;51.194;6.614;2023-07-16T15:10:51;7.23;;;3.07;;
5277;SDS011;2662;51.194;6.614;2023-07-16T15:13:19;5.80;;;2.60;;